sensor_id;sensor_type;location;lat;lon;timestamp;pressure;altitude;pressure_sealevel;temperature
50206;BMP280;36098;48.390;10.856;2023-02-28T00:00:11;96519.94;;;22.08
50206;BMP280;36098;48.390;10.856;2023-02-28T00:02:40;96518.38;;;22.07
50206;BMP280;36098;48.390;10.856;2023-02-28T00:05:07;96514.66;;;22.03
50206;BMP280;36098;48.390;10.856;2023-02-28T00:07:32;96519.41;;;22.06
50206;BMP280;36098;48.390;10.856;2023-02-28T00:09:58;96517.22;;;21.98
50206;BMP280;36098;48.390;10.856;2023-02-28T00:12:23;96518.28;;;21.97
50206;BMP280;36098;48.390;10.856;2023-02-28T00:14:48;96520.38;;;21.95
50206;BMP280;36098;48.390;10.856;2023-02-28T00:17:14;96516.13;;;21.89
50206;BMP280;36098;48.390;10.856;2023-02-28T00:19:39;96508.78;;;21.91
50206;BMP280;36098;48.390;10.856;2023-02-28T00:22:04;96500.84;;;21.86
50206;BMP280;36098;48.390;10.856;2023-02-28T00:24:29;96506.34;;;21.84
50206;BMP280;36098;48.390;10.856;2023-02-28T00:26:54;96509.78;;;21.85
50206;BMP280;36098;48.390;10.856;2023-02-28T00:29:19;96497.41;;;21.85
50206;BMP280;36098;48.390;10.856;2023-02-28T00:31:45;96505.56;;;21.84
50206;BMP280;36098;48.390;10.856;2023-02-28T00:34:10;96506.88;;;21.86
50206;BMP280;36098;48.390;10.856;2023-02-28T00:36:35;96504.53;;;21.85
50206;BMP280;36098;48.390;10.856;2023-02-28T00:39:00;96499.78;;;21.82
50206;BMP280;36098;48.390;10.856;2023-02-28T00:41:25;96501.09;;;21.84
50206;BMP280;36098;48.390;10.856;2023-02-28T00:43:50;96498.72;;;21.83
50206;BMP280;36098;48.390;10.856;2023-02-28T00:46:16;96500.25;;;21.79
50206;BMP280;36098;48.390;10.856;2023-02-28T00:48:41;96493.69;;;21.76
50206;BMP280;36098;48.390;10.856;2023-02-28T00:51:06;96501.28;;;21.78
50206;BMP280;36098;48.390;10.856;2023-02-28T00:53:31;96503.66;;;21.74
50206;BMP280;36098;48.390;10.856;2023-02-28T00:55:57;96499.97;;;21.75
50206;BMP280;36098;48.390;10.856;2023-02-28T00:58:23;96500.75;;;21.76
50206;BMP280;36098;48.390;10.856;2023-02-28T01:00:48;96504.44;;;21.75
50206;BMP280;36098;48.390;10.856;2023-02-28T01:03:14;96504.94;;;21.72
50206;BMP280;36098;48.390;10.856;2023-02-28T01:05:39;96494.69;;;21.70
50206;BMP280;36098;48.390;10.856;2023-02-28T01:08:06;96484.41;;;21.69
50206;BMP280;36098;48.390;10.856;2023-02-28T01:10:31;96496.22;;;21.66
50206;BMP280;36098;48.390;10.856;2023-02-28T01:12:56;96505.63;;;21.62
50206;BMP280;36098;48.390;10.856;2023-02-28T01:15:21;96499.00;;;21.60
50206;BMP280;36098;48.390;10.856;2023-02-28T01:17:47;96502.78;;;21.64
50206;BMP280;36098;48.390;10.856;2023-02-28T01:20:12;96502.69;;;21.59
50206;BMP280;36098;48.390;10.856;2023-02-28T01:22:37;96496.38;;;21.60
50206;BMP280;36098;48.390;10.856;2023-02-28T01:25:02;96499.81;;;21.60
50206;BMP280;36098;48.390;10.856;2023-02-28T01:27:27;96493.22;;;21.58
50206;BMP280;36098;48.390;10.856;2023-02-28T01:29:53;96498.97;;;21.55
50206;BMP280;36098;48.390;10.856;2023-02-28T01:32:19;96499.78;;;21.55
50206;BMP280;36098;48.390;10.856;2023-02-28T01:34:44;96488.19;;;21.51
50206;BMP280;36098;48.390;10.856;2023-02-28T01:37:09;96484.22;;;21.49
50206;BMP280;36098;48.390;10.856;2023-02-28T01:39:34;96487.88;;;21.48
50206;BMP280;36098;48.390;10.856;2023-02-28T01:41:59;96486.28;;;21.47
50206;BMP280;36098;48.390;10.856;2023-02-28T01:47:09;96474.19;;;21.46
50206;BMP280;36098;48.390;10.856;2023-02-28T01:49:34;96474.69;;;21.43
50206;BMP280;36098;48.390;10.856;2023-02-28T01:51:59;96474.19;;;21.46
50206;BMP280;36098;48.390;10.856;2023-02-28T01:54:29;96478.09;;;21.43
50206;BMP280;36098;48.390;10.856;2023-02-28T01:57:03;96472.53;;;21.40
50206;BMP280;36098;48.390;10.856;2023-02-28T01:59:31;96482.81;;;21.41
50206;BMP280;36098;48.390;10.856;2023-02-28T02:01:58;96473.84;;;21.38
50206;BMP280;36098;48.390;10.856;2023-02-28T02:04:23;96476.22;;;21.39
50206;BMP280;36098;48.390;10.856;2023-02-28T02:06:50;96471.53;;;21.41
50206;BMP280;36098;48.390;10.856;2023-02-28T02:09:16;96462.59;;;21.42
50206;BMP280;36098;48.390;10.856;2023-02-28T02:11:42;96459.91;;;21.37
50206;BMP280;36098;48.390;10.856;2023-02-28T02:14:15;96458.63;;;21.39
50206;BMP280;36098;48.390;10.856;2023-02-28T02:16:56;96454.66;;;21.37
50206;BMP280;36098;48.390;10.856;2023-02-28T02:19:39;96462.00;;;21.35
50206;BMP280;36098;48.390;10.856;2023-02-28T02:22:21;96452.53;;;21.34
50206;BMP280;36098;48.390;10.856;2023-02-28T02:25:02;96459.34;;;21.30
50206;BMP280;36098;48.390;10.856;2023-02-28T02:27:39;96449.88;;;21.29
50206;BMP280;36098;48.390;10.856;2023-02-28T02:30:16;96451.69;;;21.29
50206;BMP280;36098;48.390;10.856;2023-02-28T02:35:13;96447.47;;;21.28
50206;BMP280;36098;48.390;10.856;2023-02-28T02:37:44;96447.47;;;21.28
50206;BMP280;36098;48.390;10.856;2023-02-28T02:40:14;96448.25;;;21.23
50206;BMP280;36098;48.390;10.856;2023-02-28T02:42:44;96446.09;;;21.20
50206;BMP280;36098;48.390;10.856;2023-02-28T02:45:18;96448.25;;;21.23
50206;BMP280;36098;48.390;10.856;2023-02-28T02:47:44;96439.81;;;21.21
50206;BMP280;36098;48.390;10.856;2023-02-28T02:50:11;96439.00;;;21.21
50206;BMP280;36098;48.390;10.856;2023-02-28T02:52:39;96443.75;;;21.24
50206;BMP280;36098;48.390;10.856;2023-02-28T02:55:06;96444.28;;;21.21
50206;BMP280;36098;48.390;10.856;2023-02-28T02:57:33;96447.13;;;21.19
50206;BMP280;36098;48.390;10.856;2023-02-28T03:00:00;96450.81;;;21.18
50206;BMP280;36098;48.390;10.856;2023-02-28T03:02:26;96453.97;;;21.20
50206;BMP280;36098;48.390;10.856;2023-02-28T03:05:00;96460.53;;;21.18
50206;BMP280;36098;48.390;10.856;2023-02-28T03:07:26;96452.88;;;21.16
50206;BMP280;36098;48.390;10.856;2023-02-28T03:09:53;96458.63;;;21.13
50206;BMP280;36098;48.390;10.856;2023-02-28T03:12:18;96453.69;;;21.17
50206;BMP280;36098;48.390;10.856;2023-02-28T03:14:59;96454.97;;;21.14
50206;BMP280;36098;48.390;10.856;2023-02-28T03:28:09;96470.41;;;21.11
50206;BMP280;36098;48.390;10.856;2023-02-28T03:30:42;96465.66;;;21.08
50206;BMP280;36098;48.390;10.856;2023-02-28T03:33:13;96465.94;;;21.06
50206;BMP280;36098;48.390;10.856;2023-02-28T03:35:42;96462.50;;;21.06
50206;BMP280;36098;48.390;10.856;2023-02-28T03:40:39;96466.97;;;21.05
50206;BMP280;36098;48.390;10.856;2023-02-28T03:43:09;96466.47;;;21.08
50206;BMP280;36098;48.390;10.856;2023-02-28T03:45:36;96461.19;;;21.03
50206;BMP280;36098;48.390;10.856;2023-02-28T03:48:10;96467.47;;;21.02
50206;BMP280;36098;48.390;10.856;2023-02-28T03:50:37;96472.94;;;21.01
50206;BMP280;36098;48.390;10.856;2023-02-28T03:53:08;96469.28;;;21.02
50206;BMP280;36098;48.390;10.856;2023-02-28T03:55:37;96475.56;;;21.01
50206;BMP280;36098;48.390;10.856;2023-02-28T03:58:05;96478.75;;;21.03
50206;BMP280;36098;48.390;10.856;2023-02-28T04:00:34;96481.06;;;20.99
50206;BMP280;36098;48.390;10.856;2023-02-28T04:03:00;96487.84;;;20.95
50206;BMP280;36098;48.390;10.856;2023-02-28T04:05:25;96485.78;;;20.97
50206;BMP280;36098;48.390;10.856;2023-02-28T04:07:51;96487.84;;;20.95
50206;BMP280;36098;48.390;10.856;2023-02-28T04:10:17;96493.09;;;20.95
50206;BMP280;36098;48.390;10.856;2023-02-28T04:12:42;96496.78;;;20.94
50206;BMP280;36098;48.390;10.856;2023-02-28T04:15:07;96490.75;;;20.94
50206;BMP280;36098;48.390;10.856;2023-02-28T04:17:33;96501.25;;;20.94
50206;BMP280;36098;48.390;10.856;2023-02-28T04:19:58;96495.69;;;20.90
50206;BMP280;36098;48.390;10.856;2023-02-28T04:22:23;96509.03;;;20.89
50206;BMP280;36098;48.390;10.856;2023-02-28T04:24:51;96509.84;;;20.89
50206;BMP280;36098;48.390;10.856;2023-02-28T04:27:19;96508.81;;;20.90
50206;BMP280;36098;48.390;10.856;2023-02-28T04:29:44;96511.44;;;20.90
50206;BMP280;36098;48.390;10.856;2023-02-28T04:32:10;96505.88;;;20.87
50206;BMP280;36098;48.390;10.856;2023-02-28T04:34:35;96510.56;;;20.85
50206;BMP280;36098;48.390;10.856;2023-02-28T04:37:00;96501.91;;;20.84
50206;BMP280;36098;48.390;10.856;2023-02-28T04:39:25;96496.66;;;20.84
50206;BMP280;36098;48.390;10.856;2023-02-28T04:41:51;96504.53;;;20.84
50206;BMP280;36098;48.390;10.856;2023-02-28T04:44:16;96495.84;;;20.84
50206;BMP280;36098;48.390;10.856;2023-02-28T04:46:42;96500.06;;;20.85
50206;BMP280;36098;48.390;10.856;2023-02-28T04:49:08;96498.72;;;20.82
50206;BMP280;36098;48.390;10.856;2023-02-28T04:51:33;96497.59;;;20.78
50206;BMP280;36098;48.390;10.856;2023-02-28T04:53:58;96501.03;;;20.79
50206;BMP280;36098;48.390;10.856;2023-02-28T04:56:24;96504.97;;;20.81
50206;BMP280;36098;48.390;10.856;2023-02-28T04:58:49;96506.00;;;20.80
50206;BMP280;36098;48.390;10.856;2023-02-28T05:03:41;96511.84;;;20.82
50206;BMP280;36098;48.390;10.856;2023-02-28T05:06:06;96506.81;;;20.81
50206;BMP280;36098;48.390;10.856;2023-02-28T05:08:32;96504.00;;;20.66
50206;BMP280;36098;48.390;10.856;2023-02-28T05:10:57;96509.03;;;20.51
50206;BMP280;36098;48.390;10.856;2023-02-28T05:13:23;96519.66;;;20.39
50206;BMP280;36098;48.390;10.856;2023-02-28T05:15:48;96523.25;;;20.33
50206;BMP280;36098;48.390;10.856;2023-02-28T05:18:13;96526.81;;;20.44
50206;BMP280;36098;48.390;10.856;2023-02-28T05:20:39;96525.72;;;20.40
50206;BMP280;36098;48.390;10.856;2023-02-28T05:23:04;96520.19;;;20.41
50206;BMP280;36098;48.390;10.856;2023-02-28T05:25:29;96512.97;;;20.48
50206;BMP280;36098;48.390;10.856;2023-02-28T05:27:54;96522.00;;;20.57
50206;BMP280;36098;48.390;10.856;2023-02-28T05:30:19;96510.84;;;20.67
50206;BMP280;36098;48.390;10.856;2023-02-28T05:32:48;96523.84;;;20.78
50206;BMP280;36098;48.390;10.856;2023-02-28T05:35:14;96516.69;;;20.90
50206;BMP280;36098;48.390;10.856;2023-02-28T05:37:39;96513.13;;;21.01
50206;BMP280;36098;48.390;10.856;2023-02-28T05:40:05;96504.31;;;21.12
50206;BMP280;36098;48.390;10.856;2023-02-28T05:42:37;96497.88;;;21.25
50206;BMP280;36098;48.390;10.856;2023-02-28T05:45:02;96497.19;;;21.34
50206;BMP280;36098;48.390;10.856;2023-02-28T05:47:27;96501.31;;;21.51
50206;BMP280;36098;48.390;10.856;2023-02-28T05:49:53;96501.97;;;21.63
50206;BMP280;36098;48.390;10.856;2023-02-28T05:52:18;96504.16;;;21.71
50206;BMP280;36098;48.390;10.856;2023-02-28T05:54:43;96509.25;;;21.83
50206;BMP280;36098;48.390;10.856;2023-02-28T05:57:08;96505.13;;;21.97
50206;BMP280;36098;48.390;10.856;2023-02-28T05:59:34;96511.81;;;22.09
50206;BMP280;36098;48.390;10.856;2023-02-28T06:01:59;96517.38;;;22.18
50206;BMP280;36098;48.390;10.856;2023-02-28T06:04:24;96508.50;;;22.29
50206;BMP280;36098;48.390;10.856;2023-02-28T06:06:49;96516.97;;;22.36
50206;BMP280;36098;48.390;10.856;2023-02-28T06:09:15;96518.88;;;22.40
50206;BMP280;36098;48.390;10.856;2023-02-28T06:11:40;96506.03;;;22.49
50206;BMP280;36098;48.390;10.856;2023-02-28T06:14:06;96517.13;;;22.56
50206;BMP280;36098;48.390;10.856;2023-02-28T06:16:32;96523.50;;;22.65
50206;BMP280;36098;48.390;10.856;2023-02-28T06:18:58;96518.53;;;22.73
50206;BMP280;36098;48.390;10.856;2023-02-28T06:21:24;96526.47;;;22.78
50206;BMP280;36098;48.390;10.856;2023-02-28T06:23:49;96532.53;;;22.84
50206;BMP280;36098;48.390;10.856;2023-02-28T06:26:14;96535.19;;;22.94
50206;BMP280;36098;48.390;10.856;2023-02-28T06:28:40;96538.66;;;22.99
50206;BMP280;36098;48.390;10.856;2023-02-28T06:31:06;96543.16;;;23.04
50206;BMP280;36098;48.390;10.856;2023-02-28T06:33:31;96551.59;;;23.06
50206;BMP280;36098;48.390;10.856;2023-02-28T06:35:56;96552.38;;;23.06
50206;BMP280;36098;48.390;10.856;2023-02-28T06:38:22;96557.72;;;23.16
50206;BMP280;36098;48.390;10.856;2023-02-28T06:40:56;96561.19;;;23.27
50206;BMP280;36098;48.390;10.856;2023-02-28T06:43:22;96565.44;;;23.37
50206;BMP280;36098;48.390;10.856;2023-02-28T06:45:48;96572.31;;;23.38
50206;BMP280;36098;48.390;10.856;2023-02-28T06:48:13;96575.19;;;23.42
50206;BMP280;36098;48.390;10.856;2023-02-28T06:50:38;96572.84;;;23.50
50206;BMP280;36098;48.390;10.856;2023-02-28T06:53:04;96575.75;;;23.54
50206;BMP280;36098;48.390;10.856;2023-02-28T06:55:29;96571.78;;;23.56
50206;BMP280;36098;48.390;10.856;2023-02-28T06:57:54;96569.19;;;23.61
50206;BMP280;36098;48.390;10.856;2023-02-28T07:00:22;96572.09;;;23.70
50206;BMP280;36098;48.390;10.856;2023-02-28T07:02:47;96576.06;;;23.72
50206;BMP280;36098;48.390;10.856;2023-02-28T07:05:12;96566.84;;;23.75
50206;BMP280;36098;48.390;10.856;2023-02-28T07:07:38;96572.63;;;23.77
50206;BMP280;36098;48.390;10.856;2023-02-28T07:10:05;96576.88;;;23.83
50206;BMP280;36098;48.390;10.856;2023-02-28T07:12:30;96577.16;;;23.86
50206;BMP280;36098;48.390;10.856;2023-02-28T07:14:56;96565.03;;;23.90
50206;BMP280;36098;48.390;10.856;2023-02-28T07:17:21;96578.75;;;23.92
50206;BMP280;36098;48.390;10.856;2023-02-28T07:19:46;96570.84;;;23.97
50206;BMP280;36098;48.390;10.856;2023-02-28T07:22:12;96569.53;;;24.00
50206;BMP280;36098;48.390;10.856;2023-02-28T07:24:37;96570.03;;;24.02
50206;BMP280;36098;48.390;10.856;2023-02-28T07:27:03;96563.47;;;24.04
50206;BMP280;36098;48.390;10.856;2023-02-28T07:29:28;96573.22;;;24.09
50206;BMP280;36098;48.390;10.856;2023-02-28T07:31:53;96564.78;;;24.12
50206;BMP280;36098;48.390;10.856;2023-02-28T07:34:19;96561.09;;;24.13
50206;BMP280;36098;48.390;10.856;2023-02-28T07:36:44;96567.41;;;24.17
50206;BMP280;36098;48.390;10.856;2023-02-28T07:39:10;96572.44;;;24.23
50206;BMP280;36098;48.390;10.856;2023-02-28T07:41:35;96566.63;;;24.26
50206;BMP280;36098;48.390;10.856;2023-02-28T07:44:04;96570.31;;;24.25
50206;BMP280;36098;48.390;10.856;2023-02-28T07:46:29;96571.38;;;24.29
50206;BMP280;36098;48.390;10.856;2023-02-28T07:48:59;96570.31;;;24.35
50206;BMP280;36098;48.390;10.856;2023-02-28T07:51:25;96577.72;;;24.38
50206;BMP280;36098;48.390;10.856;2023-02-28T07:53:50;96582.16;;;24.43
50206;BMP280;36098;48.390;10.856;2023-02-28T07:56:15;96579.53;;;24.48
50206;BMP280;36098;48.390;10.856;2023-02-28T07:58:40;96578.47;;;24.44
50206;BMP280;36098;48.390;10.856;2023-02-28T08:01:06;96582.69;;;24.45
50206;BMP280;36098;48.390;10.856;2023-02-28T08:03:32;96584.03;;;24.42
50206;BMP280;36098;48.390;10.856;2023-02-28T08:05:57;96582.69;;;24.40
50206;BMP280;36098;48.390;10.856;2023-02-28T08:08:22;96580.88;;;24.40
50206;BMP280;36098;48.390;10.856;2023-02-28T08:10:48;96586.69;;;24.42
50206;BMP280;36098;48.390;10.856;2023-02-28T08:13:13;96591.41;;;24.45
50206;BMP280;36098;48.390;10.856;2023-02-28T08:15:40;96591.97;;;24.52
50206;BMP280;36098;48.390;10.856;2023-02-28T08:18:05;96588.53;;;24.57
50206;BMP280;36098;48.390;10.856;2023-02-28T08:20:30;96596.19;;;24.58
50206;BMP280;36098;48.390;10.856;2023-02-28T08:22:55;96596.72;;;24.60
50206;BMP280;36098;48.390;10.856;2023-02-28T08:25:21;96594.09;;;24.60
50206;BMP280;36098;48.390;10.856;2023-02-28T08:27:46;96596.72;;;24.60
50206;BMP280;36098;48.390;10.856;2023-02-28T08:30:12;96598.81;;;24.63
50206;BMP280;36098;48.390;10.856;2023-02-28T08:32:37;96594.59;;;24.62
50206;BMP280;36098;48.390;10.856;2023-02-28T08:35:03;96595.38;;;24.58
50206;BMP280;36098;48.390;10.856;2023-02-28T08:37:28;96602.53;;;24.62
50206;BMP280;36098;48.390;10.856;2023-02-28T08:39:53;96593.78;;;24.62
50206;BMP280;36098;48.390;10.856;2023-02-28T08:42:19;96597.25;;;24.62
50206;BMP280;36098;48.390;10.856;2023-02-28T08:44:44;96599.06;;;24.62
50206;BMP280;36098;48.390;10.856;2023-02-28T08:47:09;96596.19;;;24.58
50206;BMP280;36098;48.390;10.856;2023-02-28T08:49:34;96600.94;;;24.51
50206;BMP280;36098;48.390;10.856;2023-02-28T08:51:59;96606.97;;;24.42
50206;BMP280;36098;48.390;10.856;2023-02-28T08:54:24;96600.13;;;24.51
50206;BMP280;36098;48.390;10.856;2023-02-28T08:56:50;96609.66;;;24.47
50206;BMP280;36098;48.390;10.856;2023-02-28T08:59:15;96602.00;;;24.55
50206;BMP280;36098;48.390;10.856;2023-02-28T09:01:40;96599.59;;;24.49
50206;BMP280;36098;48.390;10.856;2023-02-28T09:04:06;96604.66;;;24.55
50206;BMP280;36098;48.390;10.856;2023-02-28T09:06:33;96603.81;;;24.40
50206;BMP280;36098;48.390;10.856;2023-02-28T09:08:58;96599.91;;;24.57
50206;BMP280;36098;48.390;10.856;2023-02-28T09:11:24;96595.13;;;24.64
50206;BMP280;36098;48.390;10.856;2023-02-28T09:13:49;96603.81;;;24.40
50206;BMP280;36098;48.390;10.856;2023-02-28T09:16:15;96595.13;;;24.44
50206;BMP280;36098;48.390;10.856;2023-02-28T09:18:41;96599.34;;;24.60
50206;BMP280;36098;48.390;10.856;2023-02-28T09:21:07;96604.59;;;24.50
50206;BMP280;36098;48.390;10.856;2023-02-28T09:23:33;96605.41;;;24.51
50206;BMP280;36098;48.390;10.856;2023-02-28T09:25:58;96606.97;;;24.42
50206;BMP280;36098;48.390;10.856;2023-02-28T09:28:24;96618.91;;;24.59
50206;BMP280;36098;48.390;10.856;2023-02-28T09:30:50;96615.97;;;24.71
50206;BMP280;36098;48.390;10.856;2023-02-28T09:33:16;96622.84;;;24.62
50206;BMP280;36098;48.390;10.856;2023-02-28T09:35:41;96630.53;;;24.58
50206;BMP280;36098;48.390;10.856;2023-02-28T09:38:08;96634.47;;;24.56
50206;BMP280;36098;48.390;10.856;2023-02-28T09:40:35;96629.44;;;24.54
50206;BMP280;36098;48.390;10.856;2023-02-28T09:43:00;96631.00;;;24.50
50206;BMP280;36098;48.390;10.856;2023-02-28T09:45:30;96631.53;;;24.32
50206;BMP280;36098;48.390;10.856;2023-02-28T09:47:58;96630.75;;;24.47
50206;BMP280;36098;48.390;10.856;2023-02-28T09:50:30;96634.72;;;24.29
50206;BMP280;36098;48.390;10.856;2023-02-28T09:52:58;96631.00;;;24.30
50206;BMP280;36098;48.390;10.856;2023-02-28T09:55:27;96633.13;;;24.48
50206;BMP280;36098;48.390;10.856;2023-02-28T09:57:53;96630.75;;;24.37
50206;BMP280;36098;48.390;10.856;2023-02-28T10:12:55;96650.28;;;24.36
50206;BMP280;36098;48.390;10.856;2023-02-28T10:15:21;96650.53;;;24.49
50206;BMP280;36098;48.390;10.856;2023-02-28T10:17:48;96637.09;;;24.51
50206;BMP280;36098;48.390;10.856;2023-02-28T10:20:19;96643.19;;;24.56
50206;BMP280;36098;48.390;10.856;2023-02-28T10:25:26;96645.03;;;24.61
50206;BMP280;36098;48.390;10.856;2023-02-28T10:28:08;96647.09;;;24.44
50206;BMP280;36098;48.390;10.856;2023-02-28T10:30:34;96643.69;;;24.43
50206;BMP280;36098;48.390;10.856;2023-02-28T10:32:59;96637.38;;;24.39
50206;BMP280;36098;48.390;10.856;2023-02-28T10:35:25;96655.28;;;24.27
50206;BMP280;36098;48.390;10.856;2023-02-28T10:37:53;96646.56;;;24.22
50206;BMP280;36098;48.390;10.856;2023-02-28T10:43:03;96651.84;;;24.17
50206;BMP280;36098;48.390;10.856;2023-02-28T10:45:32;96643.69;;;24.28
50206;BMP280;36098;48.390;10.856;2023-02-28T10:48:03;96646.06;;;24.20
50206;BMP280;36098;48.390;10.856;2023-02-28T10:50:42;96640.78;;;24.40
50206;BMP280;36098;48.390;10.856;2023-02-28T10:53:14;96645.53;;;24.33
50206;BMP280;36098;48.390;10.856;2023-02-28T10:55:40;96634.97;;;24.13
50206;BMP280;36098;48.390;10.856;2023-02-28T10:58:17;96647.88;;;24.04
50206;BMP280;36098;48.390;10.856;2023-02-28T11:00:45;96643.38;;;23.95
50206;BMP280;36098;48.390;10.856;2023-02-28T11:05:54;96648.91;;;23.88
50206;BMP280;36098;48.390;10.856;2023-02-28T11:08:20;96643.38;;;23.95
50206;BMP280;36098;48.390;10.856;2023-02-28T11:10:53;96640.22;;;23.98
50206;BMP280;36098;48.390;10.856;2023-02-28T11:13:19;96646.03;;;24.00
50206;BMP280;36098;48.390;10.856;2023-02-28T11:15:52;96643.13;;;24.11
50206;BMP280;36098;48.390;10.856;2023-02-28T11:18:23;96642.59;;;24.14
50206;BMP280;36098;48.390;10.856;2023-02-28T11:20:49;96644.19;;;24.05
50206;BMP280;36098;48.390;10.856;2023-02-28T11:23:15;96646.31;;;24.13
50206;BMP280;36098;48.390;10.856;2023-02-28T11:25:45;96652.66;;;24.17
50206;BMP280;36098;48.390;10.856;2023-02-28T11:28:23;96649.22;;;24.12
50206;BMP280;36098;48.390;10.856;2023-02-28T11:30:59;96646.84;;;24.20
50206;BMP280;36098;48.390;10.856;2023-02-28T11:33:32;96640.53;;;24.36
50206;BMP280;36098;48.390;10.856;2023-02-28T11:36:02;96634.69;;;24.14
50206;BMP280;36098;48.390;10.856;2023-02-28T11:38:28;96636.28;;;24.30
50206;BMP280;36098;48.390;10.856;2023-02-28T11:48:32;96634.16;;;24.12
50206;BMP280;36098;48.390;10.856;2023-02-28T11:51:08;96628.34;;;24.15
50206;BMP280;36098;48.390;10.856;2023-02-28T11:53:43;96624.16;;;24.19
50206;BMP280;36098;48.390;10.856;2023-02-28T12:04:15;96631.00;;;24.45
50206;BMP280;36098;48.390;10.856;2023-02-28T12:11:55;96622.81;;;24.42
50206;BMP280;36098;48.390;10.856;2023-02-28T12:14:31;96620.72;;;24.49
50206;BMP280;36098;48.390;10.856;2023-02-28T12:22:28;96618.88;;;24.29
50206;BMP280;36098;48.390;10.856;2023-02-28T12:25:00;96610.44;;;24.67
50206;BMP280;36098;48.390;10.856;2023-02-28T12:27:28;96618.88;;;24.79
50206;BMP280;36098;48.390;10.856;2023-02-28T12:29:57;96607.25;;;24.75
50206;BMP280;36098;48.390;10.856;2023-02-28T12:32:26;96602.50;;;24.72
50206;BMP280;36098;48.390;10.856;2023-02-28T12:34:54;96594.59;;;24.77
50206;BMP280;36098;48.390;10.856;2023-02-28T12:37:22;96599.31;;;24.70
50206;BMP280;36098;48.390;10.856;2023-02-28T12:39:51;96601.72;;;24.57
50206;BMP280;36098;48.390;10.856;2023-02-28T12:42:36;96602.50;;;24.47
50206;BMP280;36098;48.390;10.856;2023-02-28T12:45:09;96596.97;;;24.49
50206;BMP280;36098;48.390;10.856;2023-02-28T12:47:35;96599.88;;;24.62
50206;BMP280;36098;48.390;10.856;2023-02-28T12:52:37;96598.78;;;24.83
50206;BMP280;36098;48.390;10.856;2023-02-28T12:57:37;96594.75;;;25.01
50206;BMP280;36098;48.390;10.856;2023-02-28T13:00:18;96586.28;;;25.09
50206;BMP280;36098;48.390;10.856;2023-02-28T13:03:00;96589.72;;;25.14
50206;BMP280;36098;48.390;10.856;2023-02-28T13:08:03;96585.31;;;24.90
50206;BMP280;36098;48.390;10.856;2023-02-28T13:10:42;96576.34;;;24.86
50206;BMP280;36098;48.390;10.856;2023-02-28T13:13:11;96573.19;;;24.69
50206;BMP280;36098;48.390;10.856;2023-02-28T13:15:38;96579.25;;;24.69
50206;BMP280;36098;48.390;10.856;2023-02-28T13:18:19;96583.97;;;24.97
50206;BMP280;36098;48.390;10.856;2023-02-28T13:20:50;96579.16;;;25.04
50206;BMP280;36098;48.390;10.856;2023-02-28T13:23:36;96586.88;;;24.91
50206;BMP280;36098;48.390;10.856;2023-02-28T13:26:02;96584.19;;;25.01
50206;BMP280;36098;48.390;10.856;2023-02-28T13:31:12;96591.84;;;25.02
50206;BMP280;36098;48.390;10.856;2023-02-28T13:34:04;96591.38;;;24.85
50206;BMP280;36098;48.390;10.856;2023-02-28T13:36:24;96592.94;;;24.91
50206;BMP280;36098;48.390;10.856;2023-02-28T13:44:01;96590.00;;;24.98
50206;BMP280;36098;48.390;10.856;2023-02-28T13:46:29;96590.59;;;24.85
50206;BMP280;36098;48.390;10.856;2023-02-28T13:48:55;96588.25;;;24.63
50206;BMP280;36098;48.390;10.856;2023-02-28T13:51:35;96585.34;;;24.40
50206;BMP280;36098;48.390;10.856;2023-02-28T13:54:07;96587.22;;;24.39
50206;BMP280;36098;48.390;10.856;2023-02-28T13:56:44;96585.59;;;24.48
50206;BMP280;36098;48.390;10.856;2023-02-28T13:59:17;96593.03;;;24.56
50206;BMP280;36098;48.390;10.856;2023-02-28T14:01:54;96586.13;;;24.45
50206;BMP280;36098;48.390;10.856;2023-02-28T14:06:52;96594.06;;;24.25
50206;BMP280;36098;48.390;10.856;2023-02-28T14:11:44;96587.47;;;24.68
50206;BMP280;36098;48.390;10.856;2023-02-28T14:14:10;96594.59;;;24.52
50206;BMP280;36098;48.390;10.856;2023-02-28T14:16:55;96587.44;;;24.43
50206;BMP280;36098;48.390;10.856;2023-02-28T14:19:24;96588.78;;;24.40
50206;BMP280;36098;48.390;10.856;2023-02-28T14:21:59;96585.63;;;24.43
50206;BMP280;36098;48.390;10.856;2023-02-28T14:24:37;96589.84;;;24.29
50206;BMP280;36098;48.390;10.856;2023-02-28T14:30:03;96585.63;;;24.03
50206;BMP280;36098;48.390;10.856;2023-02-28T14:37:36;96581.91;;;23.94
50206;BMP280;36098;48.390;10.856;2023-02-28T14:40:02;96588.25;;;23.93
50206;BMP280;36098;48.390;10.856;2023-02-28T14:44:54;96587.72;;;23.91
50206;BMP280;36098;48.390;10.856;2023-02-28T14:47:23;96591.94;;;23.87
50206;BMP280;36098;48.390;10.856;2023-02-28T14:49:50;96596.69;;;23.90
50206;BMP280;36098;48.390;10.856;2023-02-28T14:52:26;96589.28;;;23.87
50206;BMP280;36098;48.390;10.856;2023-02-28T14:54:54;96591.94;;;23.82
50206;BMP280;36098;48.390;10.856;2023-02-28T14:57:29;96590.31;;;23.76
50206;BMP280;36098;48.390;10.856;2023-02-28T15:02:24;96590.84;;;23.78
50206;BMP280;36098;48.390;10.856;2023-02-28T15:04:56;96583.19;;;23.77
50206;BMP280;36098;48.390;10.856;2023-02-28T15:07:22;96585.03;;;23.76
50206;BMP280;36098;48.390;10.856;2023-02-28T15:10:06;96587.69;;;23.76
50206;BMP280;36098;48.390;10.856;2023-02-28T15:12:31;96581.84;;;23.69
50206;BMP280;36098;48.390;10.856;2023-02-28T15:14:56;96592.91;;;23.66
50206;BMP280;36098;48.390;10.856;2023-02-28T15:17:22;96596.91;;;23.69
50206;BMP280;36098;48.390;10.856;2023-02-28T15:19:50;96592.22;;;23.91
50206;BMP280;36098;48.390;10.856;2023-02-28T15:22:17;96600.88;;;23.81
50206;BMP280;36098;48.390;10.856;2023-02-28T15:24:45;96598.81;;;24.03
50206;BMP280;36098;48.390;10.856;2023-02-28T15:27:13;96608.56;;;24.23
50206;BMP280;36098;48.390;10.856;2023-02-28T15:29:45;96601.72;;;24.22
50206;BMP280;36098;48.390;10.856;2023-02-28T15:32:44;96596.19;;;24.18
50206;BMP280;36098;48.390;10.856;2023-02-28T15:35:25;96603.56;;;24.26
50206;BMP280;36098;48.390;10.856;2023-02-28T15:42:42;96606.69;;;23.83
50206;BMP280;36098;48.390;10.856;2023-02-28T15:47:53;96616.88;;;23.55